Time;durP1;ratioP1;P1;durP2;ratioP2;P2;SDS_P1;SDS_P2;PMS_P1;PMS_P2;Temp;Humidity;BMP_temperature;BMP_pressure;BME280_temperature;BME280_humidity;BME280_pressure;Samples;Min_cycle;Max_cycle;Signal;HPM_P1;HPM_P2
2023/03/06 00:00:44;;;;;;;9.48;7.95;;;8.00;49.50;;;;;;4991061;28;20026;-88
2023/03/06 00:03:11;;;;;;;10.23;8.80;;;7.90;49.40;;;;;;4971222;28;20023;-88
2023/03/06 00:05:37;;;;;;;9.60;7.05;;;7.90;49.40;;;;;;4982990;28;20233;-87
2023/03/06 00:08:03;;;;;;;7.75;6.97;;;7.90;49.50;;;;;;4988650;28;20053;-87
2023/03/06 00:10:30;;;;;;;10.95;8.13;;;7.90;49.50;;;;;;4985837;28;20039;-88
2023/03/06 00:13:00;;;;;;;9.02;7.75;;;7.90;49.60;;;;;;4998302;28;20038;-86
2023/03/06 00:15:27;;;;;;;9.95;7.80;;;7.90;49.70;;;;;;4982688;28;20518;-87
2023/03/06 00:17:53;;;;;;;8.45;7.43;;;7.90;49.70;;;;;;4992759;28;20034;-88
2023/03/06 00:20:20;;;;;;;8.60;7.65;;;7.80;49.60;;;;;;4986724;28;20030;-88
2023/03/06 00:22:46;;;;;;;10.18;7.68;;;7.80;49.70;;;;;;5000545;28;20133;-86
2023/03/06 00:25:15;;;;;;;9.10;8.05;;;7.80;49.70;;;;;;4989022;28;20042;-88
2023/03/06 00:27:42;;;;;;;8.50;7.60;;;7.80;49.80;;;;;;4971875;28;20040;-87
2023/03/06 00:30:12;;;;;;;7.30;6.60;;;7.70;49.70;;;;;;4987559;28;20053;-87
2023/03/06 00:32:41;;;;;;;;;;;7.70;49.70;;;;;;4986224;28;20026;-87
2023/03/06 00:35:08;;;;;;;8.35;7.40;;;7.70;49.70;;;;;;4989697;28;19964;-86
2023/03/06 00:37:35;;;;;;;8.30;7.40;;;7.70;49.60;;;;;;4989135;28;20035;-85
2023/03/06 00:40:05;;;;;;;9.75;7.65;;;7.70;49.70;;;;;;4991425;28;20093;-85
2023/03/06 00:42:31;;;;;;;8.68;7.75;;;7.60;49.60;;;;;;4986780;28;20526;-87
2023/03/06 00:44:57;;;;;;;9.13;7.50;;;7.70;49.80;;;;;;4986883;28;20501;-84
2023/03/06 00:47:23;;;;;;;8.30;7.13;;;7.70;49.90;;;;;;4970595;28;20077;-85
2023/03/06 00:49:49;;;;;;;8.35;7.55;;;7.60;49.70;;;;;;4966303;28;20058;-85
2023/03/06 00:52:15;;;;;;;8.27;7.47;;;7.60;49.80;;;;;;4988491;28;20042;-85
2023/03/06 00:54:41;;;;;;;9.05;7.80;;;7.60;49.80;;;;;;4983129;28;20054;-86
2023/03/06 00:57:07;;;;;;;9.20;7.45;;;7.70;50.00;;;;;;4988018;28;20054;-85
2023/03/06 00:59:34;;;;;;;9.07;7.22;;;7.60;49.90;;;;;;4989035;28;20026;-85
2023/03/06 01:02:00;;;;;;;8.75;7.95;;;7.60;49.90;;;;;;4986160;28;20146;-85
2023/03/06 01:04:26;;;;;;;8.95;7.88;;;7.60;50.00;;;;;;4986668;28;20159;-85
2023/03/06 01:06:53;;;;;;;8.90;7.82;;;7.60;50.00;;;;;;4996500;28;20034;-85
2023/03/06 01:09:19;;;;;;;10.57;8.00;;;7.60;50.00;;;;;;4991415;28;20037;-84
2023/03/06 01:11:45;;;;;;;9.35;8.45;;;7.60;50.10;;;;;;4994445;28;20061;-84
2023/03/06 01:14:11;;;;;;;9.65;7.35;;;7.60;50.10;;;;;;5003883;28;20034;-85
2023/03/06 01:16:37;;;;;;;9.30;8.20;;;7.60;50.20;;;;;;4987534;28;20069;-84
2023/03/06 01:19:03;;;;;;;9.10;7.43;;;7.60;50.20;;;;;;4985583;28;20058;-83
2023/03/06 01:21:29;;;;;;;8.63;7.72;;;7.60;50.80;;;;;;4993477;28;20133;-85
2023/03/06 01:23:56;;;;;;;9.15;7.82;;;7.60;50.30;;;;;;4967600;28;20053;-86
2023/03/06 01:26:23;;;;;;;9.18;8.25;;;7.60;50.40;;;;;;4981159;28;20034;-84
2023/03/06 01:28:48;;;;;;;8.30;7.50;;;7.60;50.40;;;;;;4985739;28;20251;-86
2023/03/06 01:31:14;;;;;;;9.07;8.18;;;7.60;50.50;;;;;;4992227;28;20084;-86
2023/03/06 01:33:40;;;;;;;11.15;8.38;;;7.60;50.50;;;;;;4989818;28;20141;-85
2023/03/06 01:36:10;;;;;;;8.70;7.80;;;7.60;50.50;;;;;;4987043;28;20389;-87
2023/03/06 01:38:36;;;;;;;9.70;7.35;;;7.60;50.50;;;;;;4986131;28;20043;-87
2023/03/06 01:41:03;;;;;;;8.45;6.95;;;7.60;50.60;;;;;;4990823;28;20282;-89
2023/03/06 01:43:35;;;;;;;10.05;8.73;;;7.60;50.60;;;;;;4983153;28;20382;-86
2023/03/06 01:46:23;;;;;;;8.30;7.38;;;7.60;50.60;;;;;;4986322;28;20026;-85
2023/03/06 01:48:53;;;;;;;8.40;7.05;;;7.60;50.70;;;;;;4987713;28;20033;-85
2023/03/06 01:51:20;;;;;;;8.40;7.35;;;7.60;50.60;;;;;;4969798;28;20031;-85
2023/03/06 01:53:48;;;;;;;9.57;7.80;;;7.60;50.60;;;;;;4985667;28;20038;-84
2023/03/06 01:56:15;;;;;;;8.88;7.97;;;7.60;50.70;;;;;;4987393;28;20030;-86
2023/03/06 01:58:45;;;;;;;7.35;6.72;;;7.60;50.70;;;;;;4986704;28;20030;-87
2023/03/06 02:01:13;;;;;;;11.70;8.25;;;7.50;50.60;;;;;;4986043;28;20224;-86
2023/03/06 02:03:40;;;;;;;8.45;7.65;;;7.60;50.80;;;;;;4977322;28;20042;-86
2023/03/06 02:06:06;;;;;;;8.15;7.20;;;7.60;50.90;;;;;;4985409;28;20513;-86
2023/03/06 02:08:35;;;;;;;8.30;7.43;;;7.50;50.80;;;;;;4986261;28;20046;-86
2023/03/06 02:11:13;;;;;;;9.82;7.45;;;7.50;50.80;;;;;;4977654;28;20033;-85
2023/03/06 02:13:40;;;;;;;8.93;8.02;;;7.50;50.80;;;;;;4980578;28;20114;-85
2023/03/06 02:16:08;;;;;;;8.77;7.88;;;7.50;50.80;;;;;;4985457;28;20157;-86
2023/03/06 02:18:35;;;;;;;7.80;7.00;;;7.50;50.90;;;;;;4987198;28;20042;-85
2023/03/06 02:21:19;;;;;;;8.45;7.55;;;7.50;51.00;;;;;;4991246;28;20569;-85
2023/03/06 02:23:58;;;;;;;9.18;8.13;;;7.50;51.10;;;;;;4984923;28;20073;-88
2023/03/06 02:26:26;;;;;;;10.23;8.55;;;7.50;51.00;;;;;;4986141;28;20178;-85
2023/03/06 02:28:56;;;;;;;8.95;7.85;;;7.50;51.00;;;;;;4985355;28;20032;-85
2023/03/06 02:31:29;;;;;;;8.23;7.20;;;7.50;51.10;;;;;;4989448;28;20273;-86
2023/03/06 02:34:27;;;;;;;8.57;7.68;;;7.50;51.10;;;;;;4999024;28;20042;-85
2023/03/06 02:36:57;;;;;;;8.40;7.45;;;7.50;51.20;;;;;;4987025;28;20057;-86
2023/03/06 02:39:27;;;;;;;8.52;7.35;;;7.50;51.20;;;;;;4985655;28;20030;-84
2023/03/06 02:41:53;;;;;;;8.73;7.78;;;7.50;51.20;;;;;;4985736;28;20026;-84
2023/03/06 02:44:22;;;;;;;8.82;7.63;;;7.60;51.40;;;;;;4985226;28;20712;-85
2023/03/06 02:46:48;;;;;;;7.90;7.15;;;7.50;51.20;;;;;;4986706;28;20070;-85
2023/03/06 02:49:14;;;;;;;8.02;7.00;;;7.50;51.30;;;;;;4972585;28;20143;-85
2023/03/06 02:51:40;;;;;;;8.35;7.55;;;7.50;51.30;;;;;;4977220;28;20109;-86
2023/03/06 02:54:06;;;;;;;7.95;6.70;;;7.50;51.30;;;;;;4987975;28;20046;-86
2023/03/06 02:56:32;;;;;;;7.82;7.05;;;7.50;51.40;;;;;;5003329;28;20440;-85
2023/03/06 02:58:58;;;;;;;7.35;6.68;;;7.50;51.40;;;;;;5001808;28;20054;-86
2023/03/06 03:01:24;;;;;;;7.85;7.05;;;7.60;51.70;;;;;;4974717;28;20121;-79
2023/03/06 03:03:51;;;;;;;8.15;7.13;;;7.50;51.50;;;;;;4993612;28;20068;-90
2023/03/06 03:06:17;;;;;;;9.52;6.63;;;7.50;51.50;;;;;;5005564;28;20109;-94
2023/03/06 03:08:44;;;;;;;8.55;7.28;;;7.50;51.50;;;;;;5000668;28;20148;-94
2023/03/06 03:11:11;;;;;;;7.03;6.32;;;7.50;51.60;;;;;;4985383;28;20026;-93
2023/03/06 03:13:41;;;;;;;7.13;5.80;;;7.50;51.60;;;;;;5000273;28;20053;-92
2023/03/06 03:16:14;;;;;;;7.90;7.05;;;7.50;51.60;;;;;;4993514;28;20036;-93
2023/03/06 03:18:43;;;;;;;8.07;7.13;;;7.50;51.60;;;;;;5005143;28;20068;-93
2023/03/06 03:21:11;;;;;;;8.18;7.38;;;7.50;51.60;;;;;;4995640;28;20038;-96
2023/03/06 03:23:37;;;;;;;8.77;7.40;;;7.50;51.70;;;;;;4995706;28;20022;-93
2023/03/06 03:26:12;;;;;;;7.80;6.97;;;7.50;51.70;;;;;;4999791;28;20044;-94
2023/03/06 03:28:41;;;;;;;7.78;7.07;;;7.50;51.80;;;;;;5005333;28;20022;-96
2023/03/06 03:31:10;;;;;;;7.40;6.70;;;7.50;51.80;;;;;;4987539;28;20038;-95
2023/03/06 03:33:36;;;;;;;7.63;6.93;;;7.50;51.90;;;;;;4999651;28;20058;-94
2023/03/06 03:36:05;;;;;;;9.57;7.13;;;7.50;51.90;;;;;;4997495;28;20053;-95
2023/03/06 03:38:32;;;;;;;7.85;7.00;;;7.50;51.90;;;;;;4997918;28;20025;-94
2023/03/06 03:41:03;;;;;;;8.15;7.30;;;7.50;51.90;;;;;;4999626;28;20068;-94
2023/03/06 03:43:30;;;;;;;7.97;7.18;;;7.50;52.00;;;;;;4978822;28;20038;-94
2023/03/06 03:45:57;;;;;;;7.47;6.75;;;7.50;52.00;;;;;;5001594;28;20042;-96
2023/03/06 03:48:23;;;;;;;7.93;7.13;;;7.50;52.00;;;;;;5008272;28;20038;-96
2023/03/06 03:50:50;;;;;;;7.55;6.72;;;7.50;52.00;;;;;;4998460;28;20069;-94
2023/03/06 03:53:19;;;;;;;9.65;6.97;;;7.50;52.10;;;;;;5004859;28;20045;-86
2023/03/06 03:55:47;;;;;;;7.25;6.55;;;7.50;52.10;;;;;;4979107;28;20632;-95
2023/03/06 03:58:14;;;;;;;7.47;6.68;;;7.50;52.10;;;;;;4997842;28;20484;-92
2023/03/06 04:00:40;;;;;;;7.72;6.32;;;7.50;52.20;;;;;;4994573;28;20041;-91
2023/03/06 04:03:11;;;;;;;8.25;6.60;;;7.50;52.20;;;;;;4994618;28;20307;-91
2023/03/06 04:05:41;;;;;;;8.40;7.30;;;7.50;52.20;;;;;;4992094;28;20414;-90
2023/03/06 04:08:08;;;;;;;8.48;7.20;;;7.50;52.20;;;;;;4991679;28;20104;-90
2023/03/06 04:10:38;;;;;;;7.18;6.53;;;7.50;52.20;;;;;;4992430;28;20038;-91
2023/03/06 04:13:05;;;;;;;7.18;6.47;;;7.50;52.20;;;;;;4992896;28;20393;-92
2023/03/06 04:15:32;;;;;;;8.40;6.47;;;7.50;52.30;;;;;;4995627;28;20497;-91
2023/03/06 04:18:00;;;;;;;8.63;6.93;;;7.50;52.30;;;;;;4982068;28;20061;-94
2023/03/06 04:20:28;;;;;;;8.38;6.15;;;7.50;52.30;;;;;;4994695;28;20041;-91
2023/03/06 04:22:55;;;;;;;6.57;5.82;;;7.50;52.40;;;;;;4993331;28;20613;-91
2023/03/06 04:25:22;;;;;;;8.07;6.32;;;7.50;52.40;;;;;;4993649;28;20118;-94
2023/03/06 04:27:48;;;;;;;6.80;6.10;;;7.50;52.40;;;;;;4993679;28;20046;-92
2023/03/06 04:30:14;;;;;;;8.40;6.15;;;7.60;52.60;;;;;;4977693;28;20104;-94
2023/03/06 04:32:40;;;;;;;6.80;6.00;;;7.60;52.60;;;;;;4977526;28;20579;-94
2023/03/06 04:35:07;;;;;;;6.32;5.72;;;7.50;52.50;;;;;;4993053;28;20046;-93
2023/03/06 04:37:41;;;;;;;7.32;6.40;;;7.60;52.70;;;;;;4993887;28;20027;-93
2023/03/06 04:40:14;;;;;;;6.93;6.10;;;7.60;52.70;;;;;;4991303;28;20081;-91
2023/03/06 04:42:41;;;;;;;6.95;6.25;;;7.60;52.70;;;;;;4983965;28;20101;-92
2023/03/06 04:45:07;;;;;;;6.72;6.00;;;7.60;52.70;;;;;;4991942;28;21690;-92
2023/03/06 04:47:33;;;;;;;7.60;6.88;;;7.60;52.70;;;;;;4991567;28;20055;-91
2023/03/06 04:49:59;;;;;;;7.10;6.40;;;7.60;52.80;;;;;;4989303;28;20281;-94
2023/03/06 04:52:25;;;;;;;8.32;7.10;;;7.60;52.80;;;;;;4983961;28;20401;-88
2023/03/06 04:54:51;;;;;;;8.30;6.60;;;7.60;52.80;;;;;;4994069;28;20113;-94
2023/03/06 04:57:17;;;;;;;7.43;6.72;;;7.60;52.80;;;;;;4982598;28;20034;-92
2023/03/06 04:59:43;;;;;;;8.02;7.22;;;7.60;52.80;;;;;;4992098;28;20074;-91
2023/03/06 05:02:09;;;;;;;8.90;7.65;;;7.50;52.70;;;;;;4990250;28;20076;-94
2023/03/06 05:04:35;;;;;;;10.10;7.75;;;7.60;52.90;;;;;;4993162;28;20084;-96
2023/03/06 05:07:01;;;;;;;8.32;7.10;;;7.60;52.90;;;;;;4988112;28;20035;-94
2023/03/06 05:09:27;;;;;;;10.73;7.47;;;7.60;53.00;;;;;;5004603;28;20041;-93
2023/03/06 05:11:53;;;;;;;8.13;7.25;;;7.60;53.00;;;;;;4992511;28;20061;-89
2023/03/06 05:14:19;;;;;;;9.18;7.50;;;7.60;53.00;;;;;;4992305;28;20169;-92
2023/03/06 05:16:45;;;;;;;8.15;7.35;;;7.60;53.60;;;;;;4991394;28;20030;-91
2023/03/06 05:19:11;;;;;;;7.75;6.68;;;7.60;53.10;;;;;;4988426;28;20045;-91
2023/03/06 05:21:37;;;;;;;8.07;6.75;;;7.60;53.10;;;;;;4987962;28;20034;-91
2023/03/06 05:24:03;;;;;;;8.00;6.78;;;7.60;53.20;;;;;;4991064;28;20358;-94
2023/03/06 05:26:29;;;;;;;9.85;7.03;;;7.60;53.20;;;;;;4994278;28;20049;-94
2023/03/06 05:28:55;;;;;;;7.38;6.65;;;7.60;53.20;;;;;;4994093;28;20030;-93
2023/03/06 05:31:21;;;;;;;7.03;6.20;;;7.60;53.20;;;;;;4998174;28;20030;-90
2023/03/06 05:33:47;;;;;;;7.15;6.45;;;7.60;53.30;;;;;;4993350;28;20046;-91
2023/03/06 05:36:13;;;;;;;8.02;7.30;;;7.60;53.30;;;;;;4991563;28;20038;-90
2023/03/06 05:38:39;;;;;;;7.78;6.70;;;7.60;53.40;;;;;;4989854;28;20030;-88
2023/03/06 05:41:05;;;;;;;7.57;6.40;;;7.60;53.40;;;;;;4990824;28;20457;-87
2023/03/06 05:43:31;;;;;;;8.90;7.38;;;7.70;53.60;;;;;;4991053;28;20485;-90
2023/03/06 05:46:02;;;;;;;7.57;6.80;;;7.70;53.60;;;;;;4991408;28;20053;-91
2023/03/06 05:48:28;;;;;;;6.80;6.07;;;7.70;53.60;;;;;;4990607;28;20038;-90
2023/03/06 05:50:56;;;;;;;7.35;5.97;;;7.70;53.60;;;;;;4989784;28;20038;-92
2023/03/06 05:53:22;;;;;;;7.63;6.85;;;7.70;53.70;;;;;;4987724;28;20096;-94
2023/03/06 05:55:58;;;;;;;9.80;6.78;;;7.70;53.70;;;;;;4987345;28;20030;-91
2023/03/06 05:58:25;;;;;;;7.88;6.55;;;7.70;53.80;;;;;;4992514;28;20022;-92
2023/03/06 06:00:51;;;;;;;8.73;7.28;;;7.70;53.70;;;;;;4986904;28;20128;-89
2023/03/06 06:03:18;;;;;;;7.47;6.60;;;7.70;53.80;;;;;;4985710;28;20136;-90
2023/03/06 06:05:44;;;;;;;7.85;7.05;;;7.70;53.80;;;;;;4981237;28;20065;-88
2023/03/06 06:08:10;;;;;;;7.47;6.70;;;7.70;53.80;;;;;;4987389;28;20058;-89
2023/03/06 06:10:36;;;;;;;9.77;7.50;;;7.70;53.90;;;;;;4988132;28;20107;-82
2023/03/06 06:13:01;;;;;;;7.47;6.78;;;7.70;53.90;;;;;;4984888;28;20038;-82
2023/03/06 06:15:27;;;;;;;9.25;7.03;;;7.70;54.00;;;;;;4992850;28;20053;-84
2023/03/06 06:17:55;;;;;;;8.70;7.53;;;7.70;54.00;;;;;;5003819;28;20195;-82
2023/03/06 06:20:21;;;;;;;9.50;7.20;;;7.70;54.00;;;;;;5015037;28;20032;-84
2023/03/06 06:22:47;;;;;;;7.68;6.97;;;7.80;54.20;;;;;;5007175;28;20014;-83
2023/03/06 06:25:13;;;;;;;7.80;6.97;;;7.80;54.30;;;;;;5006930;28;20045;-81
2023/03/06 06:27:40;;;;;;;8.60;6.85;;;7.70;54.10;;;;;;5009538;28;20053;-82
2023/03/06 06:30:07;;;;;;;9.35;7.50;;;7.80;54.30;;;;;;5016735;28;20025;-82
2023/03/06 06:32:34;;;;;;;7.65;6.75;;;7.80;54.40;;;;;;5010911;28;20038;-82
2023/03/06 06:35:00;;;;;;;7.40;6.47;;;7.80;54.40;;;;;;4991369;28;20105;-82
2023/03/06 06:37:26;;;;;;;8.52;7.32;;;7.80;54.40;;;;;;4996538;28;20053;-83
2023/03/06 06:39:52;;;;;;;9.93;6.65;;;7.80;54.40;;;;;;4978965;28;20034;-84
2023/03/06 06:42:18;;;;;;;8.13;7.32;;;7.80;54.50;;;;;;4986375;28;20031;-82
2023/03/06 06:44:44;;;;;;;7.10;6.40;;;7.80;54.50;;;;;;4994411;28;21779;-81
2023/03/06 06:47:10;;;;;;;7.03;6.30;;;7.80;54.50;;;;;;4986201;28;20133;-80
2023/03/06 06:49:36;;;;;;;7.28;6.57;;;7.80;54.50;;;;;;4980157;28;20103;-80
2023/03/06 06:52:04;;;;;;;8.43;6.40;;;7.80;54.60;;;;;;4984339;28;20038;-83
2023/03/06 06:54:31;;;;;;;8.25;6.32;;;7.80;54.60;;;;;;4982802;28;20057;-83
2023/03/06 06:56:57;;;;;;;9.65;6.93;;;7.80;54.60;;;;;;4984849;28;20042;-81
2023/03/06 06:59:24;;;;;;;7.72;6.82;;;7.80;54.70;;;;;;4987510;28;20053;-83
2023/03/06 07:01:51;;;;;;;9.10;7.22;;;7.90;55.10;;;;;;4986265;28;20042;-84
2023/03/06 07:04:18;;;;;;;8.27;7.00;;;7.90;55.20;;;;;;4981890;28;20666;-80
2023/03/06 07:06:44;;;;;;;7.85;6.60;;;7.90;55.30;;;;;;4990197;28;20038;-80
2023/03/06 07:09:11;;;;;;;7.85;6.05;;;7.90;55.30;;;;;;4977205;28;20080;-83
2023/03/06 07:11:38;;;;;;;8.32;6.85;;;8.00;55.60;;;;;;4980127;28;20045;-86
2023/03/06 07:14:04;;;;;;;8.82;7.45;;;8.00;55.60;;;;;;4985320;28;20048;-90
2023/03/06 07:16:31;;;;;;;8.77;6.75;;;8.00;55.70;;;;;;4983928;28;20030;-82
2023/03/06 07:18:57;;;;;;;8.07;7.28;;;8.00;55.70;;;;;;4988255;28;20042;-83
2023/03/06 07:21:23;;;;;;;12.38;6.93;;;8.00;55.70;;;;;;4971983;28;20042;-82
2023/03/06 07:23:49;;;;;;;7.10;6.38;;;8.00;55.80;;;;;;4991227;28;20034;-84
2023/03/06 07:26:15;;;;;;;14.27;7.45;;;8.00;56.00;;;;;;4988281;28;20034;-81
2023/03/06 07:28:44;;;;;;;15.25;8.23;;;8.10;56.50;;;;;;4990643;28;20076;-83
2023/03/06 07:31:10;;;;;;;15.45;7.78;;;8.20;56.90;;;;;;4981713;28;20066;-81
2023/03/06 07:33:37;;;;;;;9.80;7.35;;;8.30;57.20;;;;;;4966844;28;20038;-81
2023/03/06 07:36:08;;;;;;;11.98;8.57;;;8.40;57.60;;;;;;4986219;28;20383;-84
2023/03/06 07:38:34;;;;;;;10.25;7.30;;;8.60;58.10;;;;;;4986066;28;20548;-83
2023/03/06 07:41:00;;;;;;;11.30;8.00;;;8.70;58.20;;;;;;4985405;28;20039;-85
2023/03/06 07:43:26;;;;;;;11.40;7.95;;;8.90;58.60;;;;;;4986902;28;20056;-83
2023/03/06 07:45:59;;;;;;;12.15;7.13;;;8.90;58.60;;;;;;4990269;28;20053;-81
2023/03/06 07:48:27;;;;;;;10.43;8.45;;;9.10;58.90;;;;;;4970999;28;20384;-84
2023/03/06 07:51:02;;;;;;;8.20;6.80;;;9.20;59.10;;;;;;4952198;28;20354;-83
2023/03/06 07:53:28;;;;;;;11.15;7.32;;;9.30;59.40;;;;;;4975253;28;20465;-83
2023/03/06 07:55:54;;;;;;;9.63;7.63;;;9.40;59.50;;;;;;4972625;28;20039;-87
2023/03/06 07:58:20;;;;;;;11.18;7.63;;;9.50;59.70;;;;;;4971508;28;20074;-87
2023/03/06 08:00:47;;;;;;;10.73;7.68;;;9.50;59.70;;;;;;4971109;28;20479;-89
2023/03/06 08:03:13;;;;;;;13.13;8.20;;;9.60;59.90;;;;;;4970062;28;20033;-83
2023/03/06 08:05:40;;;;;;;8.30;6.95;;;9.70;60.10;;;;;;4969505;28;20240;-86
2023/03/06 08:08:06;;;;;;;8.20;7.30;;;9.90;60.40;;;;;;4970740;28;20352;-89
2023/03/06 08:10:33;;;;;;;11.77;7.25;;;9.90;60.50;;;;;;4966626;28;20309;-89
2023/03/06 08:12:59;;;;;;;8.43;7.57;;;10.00;60.50;;;;;;4964992;28;20490;-88
2023/03/06 08:15:25;;;;;;;10.10;7.80;;;10.10;60.50;;;;;;4966882;28;20094;-87
2023/03/06 08:17:51;;;;;;;8.75;7.88;;;10.10;60.30;;;;;;4969765;28;20482;-87
2023/03/06 08:20:17;;;;;;;8.98;7.65;;;10.20;60.30;;;;;;4973778;28;20509;-89
2023/03/06 08:22:44;;;;;;;12.02;8.40;;;10.20;60.20;;;;;;4965977;28;20474;-91
2023/03/06 08:25:12;;;;;;;14.15;9.80;;;10.20;60.10;;;;;;4967765;28;20399;-87
2023/03/06 08:27:38;;;;;;;10.13;7.90;;;10.20;60.00;;;;;;4965148;28;20483;-91
2023/03/06 08:30:06;;;;;;;9.93;8.93;;;10.20;60.00;;;;;;4975677;28;20405;-91
2023/03/06 08:32:36;;;;;;;10.43;8.90;;;10.20;60.00;;;;;;4968430;28;20097;-86
2023/03/06 08:35:04;;;;;;;10.13;8.52;;;10.20;60.00;;;;;;4973960;28;20519;-85
2023/03/06 08:37:30;;;;;;;11.38;8.52;;;10.20;59.90;;;;;;4960266;28;20109;-93
2023/03/06 08:39:56;;;;;;;10.95;9.25;;;10.20;59.80;;;;;;4973084;28;20518;-87
2023/03/06 08:42:22;;;;;;;11.68;8.95;;;10.20;59.70;;;;;;4967252;28;20035;-89
2023/03/06 08:44:48;;;;;;;10.95;8.43;;;10.20;59.60;;;;;;4971816;28;20030;-92
2023/03/06 08:47:14;;;;;;;11.48;8.75;;;10.30;59.80;;;;;;4960833;28;20569;-84
2023/03/06 08:49:39;;;;;;;10.43;8.77;;;10.30;59.70;;;;;;4984602;28;20487;-87
2023/03/06 08:52:06;;;;;;;10.77;8.45;;;10.30;59.60;;;;;;4986795;28;20402;-84
2023/03/06 08:54:35;;;;;;;15.60;8.13;;;10.30;59.40;;;;;;4984026;28;20042;-85
2023/03/06 08:57:02;;;;;;;16.00;9.27;;;10.40;59.60;;;;;;4987061;28;20067;-85
2023/03/06 08:59:28;;;;;;;22.48;7.72;;;10.40;59.90;;;;;;4989903;28;20121;-87
2023/03/06 09:01:54;;;;;;;18.60;8.20;;;10.50;60.10;;;;;;4986899;28;20164;-88
2023/03/06 09:04:19;;;;;;;14.85;7.68;;;10.50;60.10;;;;;;4985860;28;20072;-86
2023/03/06 09:06:45;;;;;;;23.83;8.50;;;10.60;60.10;;;;;;4986699;28;20481;-86
2023/03/06 09:09:12;;;;;;;29.15;8.90;;;10.70;60.10;;;;;;4972739;28;20084;-86
2023/03/06 09:11:38;;;;;;;23.98;7.85;;;10.70;59.90;;;;;;4987140;28;20072;-89
2023/03/06 09:14:05;;;;;;;23.50;7.22;;;10.80;59.90;;;;;;4987958;28;20053;-94
2023/03/06 09:16:34;;;;;;;14.88;6.78;;;10.90;60.00;;;;;;4986963;28;20050;-93
2023/03/06 09:19:00;;;;;;;15.60;6.95;;;10.90;59.70;;;;;;4997756;28;20133;-90
2023/03/06 09:21:27;;;;;;;11.88;7.00;;;11.10;60.30;;;;;;4985678;28;20137;-89
2023/03/06 09:23:53;;;;;;;14.43;6.63;;;11.20;59.70;;;;;;4980770;28;20897;-89
2023/03/06 09:26:19;;;;;;;12.65;5.95;;;11.30;59.50;;;;;;4988348;28;20034;-88
2023/03/06 09:28:45;;;;;;;12.48;6.00;;;11.40;59.30;;;;;;4988581;28;20033;-90
2023/03/06 09:31:18;;;;;;;9.77;5.40;;;11.40;59.10;;;;;;4990456;28;20144;-91
2023/03/06 09:33:44;;;;;;;10.65;5.78;;;11.50;59.10;;;;;;4995438;28;20061;-91
2023/03/06 09:36:15;;;;;;;10.80;6.00;;;11.50;59.00;;;;;;4990670;28;20042;-92
2023/03/06 09:38:41;;;;;;;16.20;5.38;;;11.60;59.00;;;;;;4985297;28;20057;-90
2023/03/06 09:41:27;;;;;;;8.60;5.10;;;11.60;58.90;;;;;;4994992;28;20035;-95
2023/03/06 09:44:03;;;;;;;10.88;5.07;;;11.70;58.80;;;;;;4982763;28;20165;-87
2023/03/06 09:46:57;;;;;;;8.27;4.85;;;11.70;58.70;;;;;;4984804;28;20039;-84
2023/03/06 09:49:40;;;;;;;7.97;4.78;;;11.80;58.70;;;;;;4981758;28;20133;-89
2023/03/06 09:52:18;;;;;;;9.48;5.35;;;11.90;58.60;;;;;;4998364;28;20038;-89
2023/03/06 09:54:49;;;;;;;8.65;4.28;;;12.00;58.50;;;;;;4985023;28;20117;-96
2023/03/06 09:57:26;;;;;;;9.00;4.15;;;12.10;58.40;;;;;;4979253;28;20031;-83
2023/03/06 09:59:55;;;;;;;6.85;4.07;;;12.10;58.20;;;;;;4984172;28;20049;-84
2023/03/06 10:02:41;;;;;;;7.10;3.92;;;12.20;58.20;;;;;;4983832;28;20047;-85
2023/03/06 10:05:26;;;;;;;5.28;3.53;;;12.30;58.10;;;;;;4984068;28;20038;-87
2023/03/06 10:08:30;;;;;;;6.32;3.65;;;12.50;58.10;;;;;;4975008;28;20129;-87
2023/03/06 10:10:58;;;;;;;8.43;3.67;;;12.70;58.00;;;;;;4960467;28;20065;-88
2023/03/06 10:13:44;;;;;;;4.97;3.42;;;12.80;57.70;;;;;;4992233;28;20569;-88
2023/03/06 10:16:26;;;;;;;13.00;4.90;;;12.80;57.40;;;;;;4979913;28;20046;-88
2023/03/06 10:18:55;;;;;;;13.10;3.88;;;12.90;57.50;;;;;;4983350;28;20026;-83
2023/03/06 10:21:30;;;;;;;13.55;4.03;;;13.00;58.00;;;;;;4986107;28;20403;-88
2023/03/06 10:24:04;;;;;;;15.48;4.15;;;13.20;58.70;;;;;;4985044;28;20038;-88
2023/03/06 10:26:41;;;;;;;10.35;3.25;;;13.50;58.90;;;;;;4964359;28;20093;-85
2023/03/06 10:29:10;;;;;;;8.20;3.90;;;13.70;58.70;;;;;;4986381;28;20035;-83
2023/03/06 10:31:48;;;;;;;8.32;3.38;;;13.90;58.50;;;;;;4981042;28;20034;-85
2023/03/06 10:34:22;;;;;;;6.63;3.75;;;14.10;58.50;;;;;;4982881;28;20042;-85
2023/03/06 10:36:49;;;;;;;4.90;3.30;;;14.20;58.30;;;;;;4983819;28;20408;-91
2023/03/06 10:39:18;;;;;;;7.68;4.40;;;14.30;58.10;;;;;;4987991;28;20488;-90
2023/03/06 10:41:50;;;;;;;19.25;5.78;;;14.50;58.00;;;;;;4988372;28;20532;-88
2023/03/06 10:44:18;;;;;;;18.02;5.75;;;14.60;58.00;;;;;;4982866;28;20042;-88
2023/03/06 10:46:47;;;;;;;21.17;6.13;;;14.70;58.40;;;;;;4985277;28;20034;-86
2023/03/06 10:49:55;;;;;;;12.45;4.90;;;14.90;58.80;;;;;;4980513;28;20117;-85
2023/03/06 10:52:21;;;;;;;19.35;5.70;;;15.10;59.30;;;;;;4982080;28;20031;-86
2023/03/06 10:54:47;;;;;;;15.23;4.72;;;15.30;59.70;;;;;;4985157;28;20413;-84
2023/03/06 10:57:28;;;;;;;10.63;5.03;;;15.50;59.30;;;;;;4986053;28;20027;-85
2023/03/06 10:59:55;;;;;;;10.57;4.85;;;15.60;59.20;;;;;;4984461;28;20026;-86
2023/03/06 11:02:32;;;;;;;10.73;3.72;;;15.70;59.30;;;;;;4987104;28;20030;-81
2023/03/06 11:05:00;;;;;;;10.30;4.30;;;15.70;59.20;;;;;;4985975;28;20047;-84
2023/03/06 11:07:28;;;;;;;9.50;4.20;;;15.90;59.40;;;;;;4993055;28;20060;-84
2023/03/06 11:09:57;;;;;;;10.30;4.03;;;16.00;59.40;;;;;;4992738;28;20050;-90
2023/03/06 11:12:32;;;;;;;10.63;3.97;;;16.10;59.20;;;;;;4986318;28;20548;-88
2023/03/06 11:15:07;;;;;;;12.07;4.10;;;16.30;59.20;;;;;;4988307;28;20132;-86
2023/03/06 11:17:51;;;;;;;9.38;3.72;;;16.40;58.90;;;;;;4987589;28;20045;-91
2023/03/06 11:20:32;;;;;;;18.08;4.50;;;16.60;58.70;;;;;;4992880;28;20035;-91
2023/03/06 11:23:04;;;;;;;8.75;2.88;;;16.80;58.60;;;;;;4991317;28;20382;-90
2023/03/06 11:25:39;;;;;;;9.85;3.40;;;17.00;58.50;;;;;;4984854;28;20037;-88
2023/03/06 11:28:28;;;;;;;8.70;3.78;;;17.20;58.40;;;;;;4992085;28;20051;-92
2023/03/06 11:31:05;;;;;;;7.20;3.47;;;17.30;58.20;;;;;;4987555;28;20048;-89
2023/03/06 11:33:45;;;;;;;8.63;2.00;;;17.50;58.20;;;;;;4993452;28;20038;-90
2023/03/06 11:36:20;;;;;;;10.38;3.08;;;17.50;57.70;;;;;;4992669;28;20042;-93
2023/03/06 11:38:52;;;;;;;16.77;2.88;;;17.60;57.60;;;;;;4992624;28;20481;-92
2023/03/06 11:41:30;;;;;;;17.80;3.50;;;17.60;57.40;;;;;;4993577;28;20174;-84
2023/03/06 11:44:32;;;;;;;39.10;5.57;;;17.70;57.40;;;;;;4991413;28;20398;-82
2023/03/06 11:47:13;;;;;;;29.30;5.80;;;17.70;57.20;;;;;;4997247;28;20520;-79
2023/03/06 11:49:59;;;;;;;33.80;6.15;;;17.80;57.20;;;;;;4993358;28;20038;-79
2023/03/06 11:52:56;;;;;;;27.95;4.82;;;17.80;57.00;;;;;;4997299;28;20043;-83
2023/03/06 11:55:34;;;;;;;22.92;3.08;;;17.80;56.70;;;;;;4983907;28;20050;-79
2023/03/06 11:58:41;;;;;;;19.55;3.35;;;17.70;56.20;;;;;;4983687;28;20027;-78
2023/03/06 12:01:39;;;;;;;23.70;4.40;;;17.60;55.80;;;;;;4966280;28;20443;-85
2023/03/06 12:04:32;;;;;;;26.13;5.10;;;17.40;55.80;;;;;;4989145;28;20057;-86
2023/03/06 12:07:31;;;;;;;31.45;4.65;;;17.20;56.00;;;;;;4994443;28;20034;-84
2023/03/06 12:10:16;;;;;;;20.88;5.35;;;17.10;56.40;;;;;;4971650;28;20043;-85
2023/03/06 12:13:07;;;;;;;14.95;3.58;;;17.20;57.10;;;;;;4986343;28;20038;-86
2023/03/06 12:15:54;;;;;;;11.15;3.35;;;17.20;57.20;;;;;;4987090;28;20054;-79
2023/03/06 12:18:33;;;;;;;19.20;4.25;;;17.30;57.20;;;;;;4984075;28;20037;-83
2023/03/06 12:21:38;;;;;;;10.70;2.42;;;17.20;56.70;;;;;;4984484;28;20805;-79
2023/03/06 12:24:24;;;;;;;16.42;2.78;;;17.20;56.50;;;;;;4987316;28;20042;-83
2023/03/06 12:27:15;;;;;;;28.27;6.20;;;17.20;56.50;;;;;;4985783;28;20536;-82
2023/03/06 12:30:03;;;;;;;36.38;5.85;;;17.10;56.40;;;;;;4986933;28;20146;-77
2023/03/06 12:32:51;;;;;;;18.55;4.13;;;17.20;56.90;;;;;;4970764;28;20213;-80
2023/03/06 12:35:42;;;;;;;25.15;6.63;;;17.20;57.00;;;;;;4983568;28;20038;-80
2023/03/06 12:38:34;;;;;;;23.10;4.15;;;17.30;57.20;;;;;;5004610;28;20046;-77
2023/03/06 12:41:25;;;;;;;19.77;3.92;;;17.30;57.00;;;;;;5001511;28;20034;-78
2023/03/06 12:44:14;;;;;;;15.45;3.75;;;17.30;56.90;;;;;;5002439;28;20025;-76
2023/03/06 12:46:48;;;;;;;15.98;4.90;;;17.30;56.90;;;;;;5001975;28;20050;-76
2023/03/06 12:49:37;;;;;;;20.25;3.47;;;17.20;56.70;;;;;;5006157;28;20106;-78
2023/03/06 12:52:06;;;;;;;15.68;4.18;;;17.10;56.70;;;;;;5003201;28;20038;-75
2023/03/06 12:54:39;;;;;;;16.98;3.85;;;17.10;56.90;;;;;;4990877;28;20378;-77
2023/03/06 12:57:07;;;;;;;11.45;3.30;;;16.90;56.60;;;;;;4987464;28;20032;-77
2023/03/06 12:59:46;;;;;;;10.63;3.40;;;16.80;56.60;;;;;;4984089;28;20038;-77
2023/03/06 13:02:31;;;;;;;12.85;3.38;;;16.80;56.80;;;;;;4985658;28;20030;-84
2023/03/06 13:05:26;;;;;;;10.68;2.40;;;16.70;56.70;;;;;;4969550;28;20061;-79
2023/03/06 13:08:20;;;;;;;13.40;2.15;;;16.70;56.80;;;;;;4987557;28;20022;-83